Time;durP1;ratioP1;P1;durP2;ratioP2;P2;SDS_P1;SDS_P2;PMS_P1;PMS_P2;Temp;Humidity;BMP_temperature;BMP_pressure;BME280_temperature;BME280_humidity;BME280_pressure;Samples;Min_cycle;Max_cycle;Signal;HPM_P1;HPM_P2
2022/10/31 00:00:52;;;;;;;;;5.00;5.00;;;;;-147.17;100.00;-15917.19;5034211;28;51276;-46
2022/10/31 00:03:17;;;;;;;;;5.33;5.33;;;;;-147.17;100.00;-15917.19;5034164;28;52048;-46
2022/10/31 00:05:46;;;;;;;;;6.33;6.00;;;;;-147.17;100.00;-15917.19;5034260;28;51189;-45
2022/10/31 00:08:11;;;;;;;;;6.00;5.67;;;;;-147.17;100.00;-15917.19;5034429;28;51060;-47
2022/10/31 00:10:41;;;;;;;;;4.67;4.67;;;;;-147.17;100.00;-15917.19;5034547;28;51111;-46
2022/10/31 00:13:07;;;;;;;;;12.67;12.67;;;;;-147.17;100.00;-15917.19;5028472;28;51921;-46
2022/10/31 00:15:37;;;;;;;;;10.00;9.00;;;;;-147.17;100.00;-15917.19;5032118;28;50966;-46
2022/10/31 00:18:03;;;;;;;;;8.00;8.00;;;;;-147.17;100.00;-15917.19;5034195;28;50979;-45
2022/10/31 00:20:29;;;;;;;;;9.00;9.00;;;;;-147.17;100.00;-15917.19;5034340;28;51347;-45
2022/10/31 00:22:58;;;;;;;;;7.67;7.00;;;;;-147.17;100.00;-15917.19;5033736;28;51186;-46
2022/10/31 00:25:23;;;;;;;;;7.33;7.33;;;;;-147.17;100.00;-15917.19;5016408;28;51004;-46
2022/10/31 00:27:49;;;;;;;;;10.00;9.33;;;;;-147.17;100.00;-15917.19;5034056;28;50996;-45
2022/10/31 00:30:14;;;;;;;;;9.00;9.00;;;;;-147.17;100.00;-15917.19;5034367;28;51279;-46
2022/10/31 00:32:40;;;;;;;;;11.33;11.33;;;;;-147.17;100.00;-15917.19;5016206;28;51128;-45
2022/10/31 00:35:05;;;;;;;;;11.67;10.67;;;;;-147.17;100.00;-15917.19;5033361;28;51036;-46
2022/10/31 00:37:30;;;;;;;;;12.33;12.00;;;;;-147.17;100.00;-15917.19;5016524;28;51188;-45
2022/10/31 00:39:56;;;;;;;;;12.00;10.33;;;;;-147.17;100.00;-15917.19;5033501;28;51118;-46
2022/10/31 00:42:21;;;;;;;;;13.00;12.00;;;;;-147.17;100.00;-15917.19;5034097;28;51047;-46
2022/10/31 00:44:46;;;;;;;;;13.67;13.67;;;;;-147.17;100.00;-15917.19;5033881;28;51122;-45
2022/10/31 00:47:12;;;;;;;;;12.00;12.00;;;;;-147.17;100.00;-15917.19;5033528;28;51279;-46
2022/10/31 00:49:37;;;;;;;;;12.33;12.00;;;;;-147.17;100.00;-15917.19;5033653;28;50913;-46
2022/10/31 00:52:03;;;;;;;;;14.00;12.00;;;;;-147.17;100.00;-15917.19;5033602;28;51782;-45
2022/10/31 00:54:28;;;;;;;;;12.25;12.00;;;;;-147.17;100.00;-15917.19;5033651;28;52101;-47
2022/10/31 00:56:54;;;;;;;;;13.75;13.75;;;;;-147.17;100.00;-15917.19;5033051;28;51003;-46
2022/10/31 00:59:19;;;;;;;;;13.00;12.33;;;;;-147.17;100.00;-15917.19;5033381;28;51404;-46
2022/10/31 01:01:44;;;;;;;;;14.00;14.00;;;;;-147.17;100.00;-15917.19;5033305;28;57207;-45
2022/10/31 01:04:09;;;;;;;;;15.33;15.33;;;;;-147.17;100.00;-15917.19;5033391;28;51146;-46
2022/10/31 01:06:35;;;;;;;;;17.50;16.75;;;;;-147.17;100.00;-15917.19;5034018;28;51071;-46
2022/10/31 01:09:00;;;;;;;;;18.50;16.00;;;;;-147.17;100.00;-15917.19;5033673;28;51456;-46
2022/10/31 01:11:25;;;;;;;;;19.67;17.00;;;;;-147.17;100.00;-15917.19;5030449;28;52820;-45
2022/10/31 01:13:53;;;;;;;;;15.00;15.00;;;;;-147.17;100.00;-15917.19;5027562;28;50980;-46
2022/10/31 01:16:21;;;;;;;;;16.75;16.50;;;;;-147.17;100.00;-15917.19;5033619;28;51182;-45
2022/10/31 01:18:47;;;;;;;;;19.50;16.25;;;;;-147.17;100.00;-15917.19;5032920;28;51282;-46
2022/10/31 01:21:22;;;;;;;;;19.00;17.25;;;;;-147.17;100.00;-15917.19;5033193;28;52024;-46
2022/10/31 01:23:48;;;;;;;;;16.50;15.25;;;;;-147.17;100.00;-15917.19;5033404;28;51059;-45
2022/10/31 01:26:25;;;;;;;;;16.50;16.00;;;;;-147.17;100.00;-15917.19;5033488;28;51250;-46
2022/10/31 01:28:59;;;;;;;;;21.00;19.50;;;;;-147.17;100.00;-15917.19;5006597;28;51294;-46
2022/10/31 01:31:27;;;;;;;;;15.00;15.00;;;;;-147.17;100.00;-15917.19;5033109;28;51849;-46
2022/10/31 01:33:54;;;;;;;;;18.25;17.50;;;;;-147.17;100.00;-15917.19;5032712;28;50911;-46
2022/10/31 01:36:23;;;;;;;;;18.50;18.00;;;;;-147.17;100.00;-15917.19;5033240;28;50965;-46
2022/10/31 01:38:50;;;;;;;;;17.00;15.75;;;;;-147.17;100.00;-15917.19;5033154;28;51180;-46
2022/10/31 01:41:18;;;;;;;;;17.00;16.00;;;;;-147.17;100.00;-15917.19;5026767;28;52222;-46
2022/10/31 01:43:55;;;;;;;;;15.50;15.00;;;;;-147.17;100.00;-15917.19;5019793;28;50943;-47
2022/10/31 01:46:23;;;;;;;;;19.00;17.50;;;;;-147.17;100.00;-15917.19;5032864;28;51024;-46
2022/10/31 01:48:51;;;;;;;;;19.50;18.75;;;;;-147.17;100.00;-15917.19;5033008;28;51202;-46
2022/10/31 01:51:22;;;;;;;;;17.75;17.00;;;;;-147.17;100.00;-15917.19;5032470;28;53003;-46
2022/10/31 01:53:51;;;;;;;;;20.25;20.25;;;;;-147.17;100.00;-15917.19;5032175;28;51141;-47
2022/10/31 01:56:17;;;;;;;;;21.75;18.50;;;;;-147.17;100.00;-15917.19;5032760;28;51226;-46
2022/10/31 01:58:46;;;;;;;;;22.75;20.00;;;;;-147.17;100.00;-15917.19;5033204;28;51013;-48
2022/10/31 02:01:13;;;;;;;;;19.00;18.00;;;;;-147.17;100.00;-15917.19;5032131;28;52223;-46
2022/10/31 02:03:39;;;;;;;;;18.00;18.00;;;;;-147.17;100.00;-15917.19;5032553;28;51128;-44
2022/10/31 02:06:13;;;;;;;;;17.25;17.25;;;;;-147.17;100.00;-15917.19;5032507;28;51040;-45
2022/10/31 02:08:40;;;;;;;;;23.75;23.75;;;;;-147.17;100.00;-15917.19;5033259;28;51220;-45
2022/10/31 02:11:07;;;;;;;;;21.50;21.00;;;;;-147.17;100.00;-15917.19;5032406;28;52628;-45
2022/10/31 02:13:33;;;;;;;;;23.25;21.75;;;;;-147.17;100.00;-15917.19;5032806;28;51026;-47
2022/10/31 02:15:59;;;;;;;;;21.50;19.00;;;;;-147.17;100.00;-15917.19;5032415;28;51145;-47
2022/10/31 02:18:26;;;;;;;;;22.50;21.75;;;;;-147.17;100.00;-15917.19;5029918;28;51376;-46
2022/10/31 02:21:04;;;;;;;;;20.75;19.75;;;;;-147.17;100.00;-15917.19;5032214;28;51908;-47
2022/10/31 02:24:03;;;;;;;;;17.00;17.00;;;;;-147.17;100.00;-15917.19;5032349;28;51008;-46
2022/10/31 02:26:41;;;;;;;;;18.00;17.75;;;;;-147.17;100.00;-15917.19;5032601;28;51032;-47
2022/10/31 02:29:24;;;;;;;;;16.75;16.00;;;;;-147.17;100.00;-15917.19;5032476;28;51225;-46
2022/10/31 02:32:08;;;;;;;;;19.00;17.25;;;;;-147.17;100.00;-15917.19;5032068;28;51913;-45
2022/10/31 02:34:38;;;;;;;;;18.25;18.00;;;;;-147.17;100.00;-15917.19;5029293;28;52827;-46
2022/10/31 02:37:22;;;;;;;;;19.25;18.00;;;;;-147.17;100.00;-15917.19;5032163;28;51226;-46
2022/10/31 02:40:05;;;;;;;;;17.33;16.67;;;;;-147.17;100.00;-15917.19;5034189;28;51231;-46
2022/10/31 02:42:30;;;;;;;;;20.00;18.25;;;;;-147.17;100.00;-15917.19;5035210;28;51788;-46
2022/10/31 02:45:07;;;;;;;;;21.00;17.75;;;;;-147.17;100.00;-15917.19;5035753;28;50981;-46
2022/10/31 02:47:37;;;;;;;;;21.50;21.00;;;;;-147.17;100.00;-15917.19;5035997;28;51117;-45
2022/10/31 02:50:11;;;;;;;;;20.00;19.00;;;;;-147.17;100.00;-15917.19;5035016;28;50992;-45
2022/10/31 02:52:36;;;;;;;;;21.25;21.25;;;;;-147.17;100.00;-15917.19;5035173;28;51995;-46
2022/10/31 02:55:26;;;;;;;;;19.00;17.25;;;;;-147.17;100.00;-15917.19;5035053;28;50969;-46
2022/10/31 02:57:56;;;;;;;;;17.00;16.50;;;;;-147.17;100.00;-15917.19;5033563;28;50925;-46
2022/10/31 03:00:22;;;;;;;;;19.75;19.25;;;;;-147.17;100.00;-15917.19;5035671;28;51266;-45
2022/10/31 03:03:21;;;;;;;;;24.00;19.50;;;;;-147.17;100.00;-15917.19;5035480;28;52043;-45
2022/10/31 03:05:55;;;;;;;;;23.50;22.50;;;;;-147.17;100.00;-15917.19;5033865;28;51210;-45
2022/10/31 03:08:35;;;;;;;;;19.75;19.00;;;;;-147.17;100.00;-15917.19;5035827;28;51163;-45
2022/10/31 03:11:03;;;;;;;;;20.75;19.00;;;;;-147.17;100.00;-15917.19;5035794;28;51208;-46
2022/10/31 03:13:31;;;;;;;;;19.50;19.50;;;;;-147.17;100.00;-15917.19;5035335;28;51894;-47
2022/10/31 03:16:16;;;;;;;;;22.50;20.25;;;;;-147.17;100.00;-15917.19;5034882;28;51052;-46
2022/10/31 03:18:53;;;;;;;;;15.00;14.75;;;;;-147.17;100.00;-15917.19;5034727;28;51175;-47
2022/10/31 03:21:28;;;;;;;;;20.00;18.50;;;;;-147.17;100.00;-15917.19;5035682;28;51136;-46
2022/10/31 03:23:57;;;;;;;;;19.75;19.00;;;;;-147.17;100.00;-15917.19;5017069;28;52000;-46
2022/10/31 03:26:24;;;;;;;;;21.00;20.00;;;;;-147.17;100.00;-15917.19;5035379;28;50861;-47
2022/10/31 03:29:06;;;;;;;;;19.50;19.00;;;;;-147.17;100.00;-15917.19;5035288;28;51230;-45
2022/10/31 03:31:57;;;;;;;;;17.75;17.25;;;;;-147.17;100.00;-15917.19;5035070;28;51045;-45
2022/10/31 03:34:22;;;;;;;;;20.75;20.75;;;;;-147.17;100.00;-15917.19;5034549;28;51007;-47
2022/10/31 03:36:53;;;;;;;;;20.00;18.00;;;;;-147.17;100.00;-15917.19;5034999;28;50902;-46
2022/10/31 03:39:22;;;;;;;;;20.75;19.50;;;;;-147.17;100.00;-15917.19;5034277;28;51093;-46
2022/10/31 03:41:56;;;;;;;;;23.25;19.50;;;;;-147.17;100.00;-15917.19;5034704;28;51377;-46
2022/10/31 03:44:24;;;;;;;;;21.00;20.75;;;;;-147.17;100.00;-15917.19;5034730;28;52358;-46
2022/10/31 03:46:50;;;;;;;;;20.50;18.00;;;;;-147.17;100.00;-15917.19;5034711;28;51230;-46
2022/10/31 03:49:16;;;;;;;;;22.75;22.25;;;;;-147.17;100.00;-15917.19;5034590;28;51336;-46
2022/10/31 03:51:54;;;;;;;;;21.00;19.00;;;;;-147.17;100.00;-15917.19;5020009;28;50938;-46
2022/10/31 03:54:23;;;;;;;;;18.50;17.25;;;;;-147.17;100.00;-15917.19;5027295;28;51937;-46
2022/10/31 03:56:54;;;;;;;;;23.25;21.50;;;;;-147.17;100.00;-15917.19;5034907;28;51071;-46
2022/10/31 03:59:36;;;;;;;;;17.75;17.75;;;;;-147.17;100.00;-15917.19;5033962;28;51096;-46
2022/10/31 04:02:14;;;;;;;;;20.00;17.25;;;;;-147.17;100.00;-15917.19;5034655;28;51264;-46
2022/10/31 04:04:39;;;;;;;;;23.33;20.33;;;;;-147.17;100.00;-15917.19;5031122;28;51816;-46
2022/10/31 04:07:09;;;;;;;;;19.33;18.33;;;;;-147.17;100.00;-15917.19;5034618;28;50960;-46
2022/10/31 04:09:37;;;;;;;;;17.50;16.25;;;;;-147.17;100.00;-15917.19;5034568;28;51071;-46
2022/10/31 04:12:08;;;;;;;;;19.50;18.75;;;;;-147.17;100.00;-15917.19;5028363;28;50881;-47
2022/10/31 04:14:37;;;;;;;;;21.25;19.75;;;;;-147.17;100.00;-15917.19;5016714;28;51079;-45
2022/10/31 04:17:07;;;;;;;;;18.25;17.00;;;;;-147.17;100.00;-15917.19;5034638;28;51059;-45
2022/10/31 04:19:33;;;;;;;;;23.00;22.00;;;;;-147.17;100.00;-15917.19;5032990;28;50963;-45
2022/10/31 04:21:58;;;;;;;;;18.00;17.00;;;;;-147.17;100.00;-15917.19;5034568;28;51301;-46
2022/10/31 04:24:24;;;;;;;;;15.75;15.00;;;;;-147.17;100.00;-15917.19;5033777;28;51685;-45
2022/10/31 04:26:49;;;;;;;;;19.00;17.67;;;;;-147.17;100.00;-15917.19;5033525;28;50973;-45
2022/10/31 04:29:15;;;;;;;;;20.75;18.00;;;;;-147.17;100.00;-15917.19;5034262;28;51436;-45
2022/10/31 04:31:40;;;;;;;;;16.67;16.67;;;;;-147.17;100.00;-15917.19;5034116;28;51039;-47
2022/10/31 04:34:05;;;;;;;;;11.33;11.33;;;;;-147.17;100.00;-15917.19;5033609;28;53289;-46
2022/10/31 04:36:31;;;;;;;;;13.00;13.00;;;;;-147.17;100.00;-15917.19;5033769;28;50926;-45
2022/10/31 04:38:56;;;;;;;;;18.25;18.00;;;;;-147.17;100.00;-15917.19;5034231;28;51034;-45
2022/10/31 04:41:21;;;;;;;;;16.00;16.00;;;;;-147.17;100.00;-15917.19;5033435;28;51193;-44
2022/10/31 04:43:46;;;;;;;;;18.00;17.00;;;;;-147.17;100.00;-15917.19;5027727;28;51809;-45
2022/10/31 04:46:12;;;;;;;;;19.67;19.00;;;;;-147.17;100.00;-15917.19;5027662;28;50973;-45
2022/10/31 04:48:37;;;;;;;;;19.00;19.00;;;;;-147.17;100.00;-15917.19;5033512;28;51130;-45
2022/10/31 04:51:03;;;;;;;;;19.00;17.67;;;;;-147.17;100.00;-15917.19;5034068;28;51242;-44
2022/10/31 04:53:29;;;;;;;;;21.00;19.67;;;;;-147.17;100.00;-15917.19;5033730;28;50976;-44
2022/10/31 04:55:54;;;;;;;;;20.50;19.25;;;;;-147.17;100.00;-15917.19;5033732;28;50948;-45
2022/10/31 04:58:19;;;;;;;;;17.00;16.33;;;;;-147.17;100.00;-15917.19;5034228;28;51237;-45
2022/10/31 05:00:45;;;;;;;;;19.00;18.00;;;;;-147.17;100.00;-15917.19;5033298;28;51106;-46
2022/10/31 05:03:10;;;;;;;;;17.33;16.00;;;;;-147.17;100.00;-15917.19;5032685;28;55335;-44
2022/10/31 05:05:35;;;;;;;;;15.67;15.67;;;;;-147.17;100.00;-15917.19;5033429;28;55289;-45
2022/10/31 05:08:00;;;;;;;;;15.00;15.00;;;;;-147.17;100.00;-15917.19;5033838;28;51775;-47
2022/10/31 05:10:29;;;;;;;;;16.67;16.00;;;;;-147.17;100.00;-15917.19;5033981;28;51152;-46
2022/10/31 05:12:57;;;;;;;;;16.67;16.00;;;;;-147.17;100.00;-15917.19;5033530;28;52001;-46
2022/10/31 05:15:24;;;;;;;;;19.00;17.00;;;;;-147.17;100.00;-15917.19;5033360;28;50977;-46
2022/10/31 05:17:50;;;;;;;;;15.00;14.67;;;;;-147.17;100.00;-15917.19;5029250;28;51011;-46
2022/10/31 05:20:18;;;;;;;;;14.33;14.00;;;;;-147.17;100.00;-15917.19;5015504;28;51046;-47
2022/10/31 05:22:51;;;;;;;;;13.00;13.00;;;;;-147.17;100.00;-15917.19;5033072;28;51040;-45
2022/10/31 05:25:18;;;;;;;;;16.67;16.00;;;;;-147.17;100.00;-15917.19;5033326;28;51161;-46
2022/10/31 05:27:46;;;;;;;;;11.33;11.33;;;;;-147.17;100.00;-15917.19;5033476;28;51081;-46
2022/10/31 05:30:13;;;;;;;;;14.33;14.00;;;;;-147.17;100.00;-15917.19;5033153;28;51246;-46
2022/10/31 05:32:41;;;;;;;;;15.33;13.67;;;;;-147.17;100.00;-15917.19;5015046;28;52762;-46
2022/10/31 05:35:08;;;;;;;;;12.00;11.00;;;;;-147.17;100.00;-15917.19;5029254;28;51213;-47
2022/10/31 05:37:36;;;;;;;;;13.00;12.67;;;;;-147.17;100.00;-15917.19;5033367;28;51012;-47
2022/10/31 05:40:03;;;;;;;;;12.33;11.00;;;;;-147.17;100.00;-15917.19;5033161;28;51330;-46
2022/10/31 05:42:29;;;;;;;;;15.00;13.00;;;;;-147.17;100.00;-15917.19;5027302;28;51900;-47
2022/10/31 05:44:54;;;;;;;;;13.67;13.00;;;;;-147.17;100.00;-15917.19;5033059;28;50874;-46
2022/10/31 05:47:19;;;;;;;;;14.00;13.00;;;;;-147.17;100.00;-15917.19;5033030;28;55855;-46
2022/10/31 05:49:45;;;;;;;;;13.00;12.33;;;;;-147.17;100.00;-15917.19;5012726;28;51045;-46
2022/10/31 05:52:10;;;;;;;;;16.00;11.00;;;;;-147.17;100.00;-15917.19;5023492;28;51182;-46
2022/10/31 05:54:35;;;;;;;;;14.67;14.00;;;;;-147.17;100.00;-15917.19;5032971;28;51106;-45
2022/10/31 05:57:01;;;;;;;;;14.00;13.33;;;;;-147.17;100.00;-15917.19;5033213;28;51271;-46
2022/10/31 05:59:26;;;;;;;;;11.67;11.00;;;;;-147.17;100.00;-15917.19;5033228;28;51431;-47
2022/10/31 06:01:51;;;;;;;;;12.00;11.00;;;;;-147.17;100.00;-15917.19;5032625;28;53140;-46
2022/10/31 06:04:16;;;;;;;;;13.67;13.00;;;;;-147.17;100.00;-15917.19;5032531;28;50953;-46
2022/10/31 06:06:42;;;;;;;;;12.33;12.00;;;;;-147.17;100.00;-15917.19;5032624;28;51150;-44
2022/10/31 06:09:07;;;;;;;;;13.00;12.67;;;;;-147.17;100.00;-15917.19;5032668;28;50999;-44
2022/10/31 06:11:32;;;;;;;;;14.00;13.00;;;;;-147.17;100.00;-15917.19;5014864;28;51954;-46
2022/10/31 06:13:58;;;;;;;;;13.00;12.00;;;;;-147.17;100.00;-15917.19;5031826;28;51104;-46
2022/10/31 06:16:23;;;;;;;;;11.33;11.00;;;;;-147.17;100.00;-15917.19;5014784;28;51091;-46
2022/10/31 06:18:48;;;;;;;;;11.33;10.67;;;;;-147.17;100.00;-15917.19;5032293;28;51031;-46
2022/10/31 06:21:14;;;;;;;;;12.00;11.00;;;;;-147.17;100.00;-15917.19;5032415;28;51105;-46
2022/10/31 06:23:39;;;;;;;;;10.33;10.00;;;;;-147.17;100.00;-15917.19;5031939;28;50958;-46
2022/10/31 06:26:04;;;;;;;;;10.33;10.00;;;;;-147.17;100.00;-15917.19;5032540;28;51062;-46
2022/10/31 06:28:30;;;;;;;;;9.67;9.67;;;;;-147.17;100.00;-15917.19;5031981;28;51328;-47
2022/10/31 06:30:55;;;;;;;;;12.33;11.00;;;;;-147.17;100.00;-15917.19;5032382;28;51997;-45
2022/10/31 06:33:20;;;;;;;;;13.00;11.67;;;;;-147.17;100.00;-15917.19;5032031;28;51072;-46
2022/10/31 06:35:46;;;;;;;;;12.00;11.67;;;;;-147.17;100.00;-15917.19;5032268;28;53041;-45
2022/10/31 06:38:12;;;;;;;;;14.00;12.33;;;;;-147.17;100.00;-15917.19;5032446;28;51286;-46
2022/10/31 06:40:37;;;;;;;;;11.67;10.67;;;;;-147.17;100.00;-15917.19;5031752;28;51748;-46
2022/10/31 06:43:02;;;;;;;;;12.00;11.00;;;;;-147.17;100.00;-15917.19;5031823;28;51052;-45
2022/10/31 06:45:28;;;;;;;;;12.00;11.33;;;;;-147.17;100.00;-15917.19;5030199;28;51082;-46
2022/10/31 06:47:54;;;;;;;;;13.67;11.67;;;;;-147.17;100.00;-15917.19;5026677;28;50834;-46
2022/10/31 06:50:20;;;;;;;;;11.67;11.67;;;;;-147.17;100.00;-15917.19;5032038;28;52045;-46
2022/10/31 06:52:53;;;;;;;;;11.33;11.00;;;;;-147.17;100.00;-15917.19;5031505;28;51187;-45
2022/10/31 06:55:20;;;;;;;;;0.00;0.00;;;;;-147.17;100.00;-15917.19;5031179;28;51055;-46
2022/10/31 06:57:57;;;;;;;;;12.00;11.00;;;;;-147.17;100.00;-15917.19;5032167;28;51077;-46
2022/10/31 07:00:25;;;;;;;;;11.67;9.67;;;;;-147.17;100.00;-15917.19;5031461;28;52508;-46
2022/10/31 07:03:05;;;;;;;;;12.33;12.33;;;;;-147.17;100.00;-15917.19;5031639;28;51098;-45
2022/10/31 07:05:31;;;;;;;;;10.00;10.00;;;;;-147.17;100.00;-15917.19;5031713;28;50867;-45
2022/10/31 07:07:59;;;;;;;;;11.67;11.33;;;;;-147.17;100.00;-15917.19;5032095;28;50965;-45
2022/10/31 07:10:27;;;;;;;;;15.67;15.33;;;;;-147.17;100.00;-15917.19;5031124;28;51108;-47
2022/10/31 07:13:01;;;;;;;;;13.33;12.33;;;;;-147.17;100.00;-15917.19;5031896;28;50925;-46
2022/10/31 07:15:29;;;;;;;;;13.00;12.33;;;;;-147.17;100.00;-15917.19;5014186;28;51081;-45
2022/10/31 07:18:01;;;;;;;;;15.33;13.67;;;;;-147.17;100.00;-15917.19;5019504;28;50945;-46
2022/10/31 07:20:26;;;;;;;;;12.67;12.67;;;;;-147.17;100.00;-15917.19;5031719;28;51204;-46
2022/10/31 07:22:51;;;;;;;;;13.33;12.67;;;;;-147.17;100.00;-15917.19;5031932;28;51059;-47
2022/10/31 07:25:17;;;;;;;;;13.67;12.00;;;;;-147.17;100.00;-15917.19;5032553;28;50927;-46
2022/10/31 07:27:43;;;;;;;;;15.67;14.33;;;;;-147.17;100.00;-15917.19;5032035;28;51216;-46
2022/10/31 07:30:12;;;;;;;;;16.67;16.00;;;;;-147.17;100.00;-15917.19;5030456;28;52767;-46
2022/10/31 07:32:43;;;;;;;;;15.00;14.00;;;;;-147.17;100.00;-15917.19;5035040;28;51090;-46
2022/10/31 07:35:10;;;;;;;;;15.67;14.00;;;;;-147.17;100.00;-15917.19;5019865;28;51123;-46
2022/10/31 07:37:36;;;;;;;;;15.33;15.00;;;;;-147.17;100.00;-15917.19;5035275;28;51342;-46
2022/10/31 07:40:06;;;;;;;;;16.00;14.00;;;;;-147.17;100.00;-15917.19;5034267;28;52788;-45
2022/10/31 07:42:52;;;;;;;;;16.67;16.67;;;;;-147.17;100.00;-15917.19;5011029;28;50962;-46
2022/10/31 07:45:20;;;;;;;;;15.50;13.25;;;;;-147.17;100.00;-15917.19;5016929;28;51112;-45
2022/10/31 07:47:47;;;;;;;;;15.75;15.75;;;;;-147.17;100.00;-15917.19;5034611;28;50996;-45
2022/10/31 07:50:15;;;;;;;;;18.67;17.00;;;;;-147.17;100.00;-15917.19;5034344;28;51957;-47
2022/10/31 07:52:41;;;;;;;;;17.33;17.33;;;;;-147.17;100.00;-15917.19;5033564;28;51000;-46
2022/10/31 07:55:06;;;;;;;;;17.50;17.25;;;;;-147.17;100.00;-15917.19;5034478;28;51152;-46
2022/10/31 07:57:32;;;;;;;;;16.00;15.50;;;;;-147.17;100.00;-15917.19;5034804;28;50936;-45
2022/10/31 07:59:58;;;;;;;;;15.33;15.33;;;;;-147.17;100.00;-15917.19;5032677;28;51742;-46
2022/10/31 08:02:23;;;;;;;;;19.00;17.00;;;;;-147.17;100.00;-15917.19;5034362;28;50877;-46
2022/10/31 08:04:49;;;;;;;;;17.25;16.50;;;;;-147.17;100.00;-15917.19;5033835;28;51183;-46
2022/10/31 08:07:14;;;;;;;;;16.33;16.33;;;;;-147.17;100.00;-15917.19;5034863;28;51117;-46
2022/10/31 08:09:40;;;;;;;;;18.67;17.00;;;;;-147.17;100.00;-15917.19;5033774;28;51014;-47
2022/10/31 08:12:05;;;;;;;;;19.00;17.50;;;;;-147.17;100.00;-15917.19;5033143;28;53490;-44
2022/10/31 08:14:30;;;;;;;;;20.50;19.50;;;;;-147.17;100.00;-15917.19;5016497;28;51459;-46
2022/10/31 08:16:56;;;;;;;;;23.00;23.00;;;;;-147.17;100.00;-15917.19;5013509;28;51120;-46
2022/10/31 08:19:21;;;;;;;;;23.00;22.50;;;;;-147.17;100.00;-15917.19;5033593;28;51844;-47
2022/10/31 08:21:46;;;;;;;;;19.50;18.25;;;;;-147.17;100.00;-15917.19;5034055;28;50980;-46
2022/10/31 08:24:11;;;;;;;;;19.00;18.75;;;;;-147.17;100.00;-15917.19;5034301;28;51022;-46
2022/10/31 08:26:37;;;;;;;;;22.50;22.00;;;;;-147.17;100.00;-15917.19;5034185;28;50975;-46
2022/10/31 08:29:03;;;;;;;;;25.75;24.00;;;;;-147.17;100.00;-15917.19;5033706;28;51642;-45
2022/10/31 08:31:29;;;;;;;;;18.75;17.75;;;;;-147.17;100.00;-15917.19;5033442;28;50995;-46
2022/10/31 08:33:54;;;;;;;;;24.00;21.75;;;;;-147.17;100.00;-15917.19;5029048;28;51230;-46
2022/10/31 08:36:21;;;;;;;;;33.25;28.00;;;;;-147.17;100.00;-15917.19;5014260;28;51087;-47
2022/10/31 08:38:47;;;;;;;;;27.75;26.50;;;;;-147.17;100.00;-15917.19;5032561;28;51035;-46
2022/10/31 08:41:12;;;;;;;;;28.75;26.75;;;;;-147.17;100.00;-15917.19;5033467;28;51087;-46
2022/10/31 08:43:37;;;;;;;;;22.00;20.00;;;;;-147.17;100.00;-15917.19;5033370;28;51072;-46
2022/10/31 08:46:03;;;;;;;;;25.25;24.00;;;;;-147.17;100.00;-15917.19;5033852;28;51041;-46
2022/10/31 08:48:29;;;;;;;;;26.25;24.00;;;;;-147.17;100.00;-15917.19;5032940;28;51830;-46
2022/10/31 08:50:57;;;;;;;;;26.50;23.25;;;;;-147.17;100.00;-15917.19;5030310;28;51101;-46
2022/10/31 08:53:23;;;;;;;;;27.00;25.50;;;;;-147.17;100.00;-15917.19;5032285;28;51127;-46
2022/10/31 08:55:49;;;;;;;;;25.00;24.00;;;;;-147.17;100.00;-15917.19;5033305;28;51383;-46
2022/10/31 08:58:19;;;;;;;;;26.00;25.25;;;;;-147.17;100.00;-15917.19;5033004;28;51856;-45
2022/10/31 09:00:46;;;;;;;;;27.50;25.50;;;;;-147.17;100.00;-15917.19;5033184;28;50980;-45
2022/10/31 09:03:15;;;;;;;;;24.50;21.50;;;;;-147.17;100.00;-15917.19;5014931;28;51245;-46
2022/10/31 09:05:41;;;;;;;;;25.67;22.00;;;;;-147.17;100.00;-15917.19;5032880;28;51375;-51
2022/10/31 09:08:07;;;;;;;;;24.50;22.25;;;;;-147.17;100.00;-15917.19;5032335;28;51924;-46
2022/10/31 09:10:35;;;;;;;;;23.50;21.75;;;;;-147.17;100.00;-15917.19;5033278;28;50976;-46
2022/10/31 09:13:06;;;;;;;;;24.50;23.25;;;;;-147.17;100.00;-15917.19;5033328;28;50913;-46
2022/10/31 09:15:32;;;;;;;;;21.00;19.50;;;;;-147.17;100.00;-15917.19;5015091;28;51159;-46
2022/10/31 09:17:58;;;;;;;;;26.00;23.50;;;;;-147.17;100.00;-15917.19;5032348;28;52816;-46
2022/10/31 09:20:24;;;;;;;;;26.25;24.25;;;;;-147.17;100.00;-15917.19;5015133;28;51039;-46
2022/10/31 09:23:00;;;;;;;;;23.25;23.00;;;;;-147.17;100.00;-15917.19;5033371;28;50965;-47
2022/10/31 09:25:26;;;;;;;;;22.75;21.25;;;;;-147.17;100.00;-15917.19;5023591;28;51407;-46
2022/10/31 09:27:56;;;;;;;;;21.75;21.00;;;;;-147.17;100.00;-15917.19;5032716;28;52717;-46
2022/10/31 09:30:21;;;;;;;;;22.00;21.00;;;;;-147.17;100.00;-15917.19;5029651;28;50929;-47
2022/10/31 09:32:46;;;;;;;;;22.67;22.67;;;;;-147.17;100.00;-15917.19;5032358;28;51064;-46
2022/10/31 09:35:12;;;;;;;;;24.50;24.00;;;;;-147.17;100.00;-15917.19;5032450;28;51275;-45
2022/10/31 09:37:37;;;;;;;;;23.00;22.00;;;;;-147.17;100.00;-15917.19;5032209;28;52788;-46
2022/10/31 09:40:03;;;;;;;;;24.00;22.75;;;;;-147.17;100.00;-15917.19;5032164;28;51010;-47
2022/10/31 09:42:42;;;;;;;;;22.00;21.00;;;;;-147.17;100.00;-15917.19;5013843;28;51165;-46
2022/10/31 09:45:24;;;;;;;;;14.67;13.00;;;;;-147.17;100.00;-15917.19;5014724;28;51150;-47
2022/10/31 09:47:56;;;;;;;;;20.00;20.00;;;;;-147.17;100.00;-15917.19;5027208;28;52101;-47
2022/10/31 09:50:29;;;;;;;;;24.33;22.67;;;;;-147.17;100.00;-15917.19;5030655;28;50863;-46
2022/10/31 09:53:19;;;;;;;;;17.67;16.67;;;;;-147.17;100.00;-15917.19;5032138;28;52969;-46
2022/10/31 09:55:47;;;;;;;;;22.33;20.33;;;;;-147.17;100.00;-15917.19;5031503;28;51389;-46
2022/10/31 09:58:32;;;;;;;;;22.33;22.33;;;;;-147.17;100.00;-15917.19;5031231;28;52809;-46
2022/10/31 10:01:01;;;;;;;;;24.33;22.67;;;;;-147.17;100.00;-15917.19;5031826;28;51160;-47
2022/10/31 10:03:43;;;;;;;;;24.67;23.67;;;;;-147.17;100.00;-15917.19;5031667;28;51025;-45
2022/10/31 10:06:22;;;;;;;;;24.67;23.33;;;;;-147.17;100.00;-15917.19;5032048;28;51142;-45
2022/10/31 10:08:48;;;;;;;;;21.33;21.00;;;;;-147.17;100.00;-15917.19;5032180;28;52099;-46
2022/10/31 10:11:16;;;;;;;;;24.67;23.00;;;;;-147.17;100.00;-15917.19;5030804;28;51204;-45
2022/10/31 10:14:10;;;;;;;;;23.67;21.00;;;;;-147.17;100.00;-15917.19;5031930;28;51111;-45
2022/10/31 10:17:04;;;;;;;;;18.00;18.00;;;;;-147.17;100.00;-15917.19;5030430;28;51235;-48
2022/10/31 10:19:44;;;;;;;;;24.00;20.67;;;;;-147.17;100.00;-15917.19;4990049;28;51785;-47
2022/10/31 10:22:18;;;;;;;;;20.00;20.00;;;;;-147.17;100.00;-15917.19;5032041;28;51223;-46
2022/10/31 10:25:23;;;;;;;;;26.33;23.67;;;;;-147.17;100.00;-15917.19;5031718;28;51097;-50
2022/10/31 10:28:09;;;;;;;;;24.33;24.33;;;;;-147.17;100.00;-15917.19;4960206;28;51112;-47
2022/10/31 10:30:44;;;;;;;;;19.33;19.00;;;;;-147.17;100.00;-15917.19;5014136;28;52008;-46
2022/10/31 10:33:18;;;;;;;;;25.00;21.67;;;;;-147.17;100.00;-15917.19;5030877;28;51090;-47
2022/10/31 10:35:59;;;;;;;;;15.67;14.67;;;;;-147.17;100.00;-15917.19;5019413;28;51031;-48
2022/10/31 10:38:55;;;;;;;;;19.67;18.00;;;;;-147.17;100.00;-15917.19;5031648;28;51138;-46
2022/10/31 10:41:22;;;;;;;;;16.00;16.00;;;;;-147.17;100.00;-15917.19;5018183;28;52898;-47
2022/10/31 10:43:51;;;;;;;;;21.00;20.00;;;;;-147.17;100.00;-15917.19;5031642;28;50968;-48
2022/10/31 10:49:37;;;;;;;;;23.33;19.00;;;;;-147.17;100.00;-15917.19;5024511;28;50998;-47
2022/10/31 10:52:02;;;;;;;;;19.00;17.67;;;;;-147.17;100.00;-15917.19;5028476;28;51969;-46
2022/10/31 10:54:37;;;;;;;;;19.00;17.00;;;;;-147.17;100.00;-15917.19;5030599;28;51193;-47
2022/10/31 10:57:33;;;;;;;;;17.33;16.33;;;;;-147.17;100.00;-15917.19;5031154;28;51101;-47
2022/10/31 11:00:03;;;;;;;;;22.33;19.00;;;;;-147.17;100.00;-15917.19;5022795;28;51340;-46